createdAt,value
2022-10-17T00:03:25.917Z,16.10
2022-10-17T00:07:07.764Z,16.10
2022-10-17T00:10:58.608Z,16.10
2022-10-17T00:14:40.427Z,16.10
2022-10-17T00:18:22.437Z,16.00
2022-10-17T00:22:04.276Z,16.00
2022-10-17T00:25:46.130Z,16.00
2022-10-17T00:29:27.978Z,16.00
2022-10-17T00:33:09.887Z,16.00
2022-10-17T00:36:51.828Z,16.00
2022-10-17T00:40:33.739Z,16.00
2022-10-17T00:44:30.952Z,16.00
2022-10-17T00:48:14.342Z,16.00
2022-10-17T00:52:03.038Z,16.10
2022-10-17T00:55:52.914Z,16.00
2022-10-17T00:59:37.610Z,16.00
2022-10-17T01:03:19.607Z,16.00
2022-10-17T01:07:01.395Z,16.00
2022-10-17T01:10:52.763Z,16.00
2022-10-17T01:14:46.528Z,16.10
2022-10-17T01:18:37.131Z,16.10
2022-10-17T01:22:38.005Z,16.10
2022-10-17T01:26:31.035Z,16.10
2022-10-17T01:30:43.924Z,16.20
2022-10-17T01:34:40.895Z,16.20
2022-10-17T01:38:30.590Z,16.20
2022-10-17T01:42:18.215Z,16.30
2022-10-17T01:46:21.947Z,16.20
2022-10-17T01:50:19.763Z,16.30
2022-10-17T01:54:04.756Z,16.30
2022-10-17T01:57:51.031Z,16.30
2022-10-17T02:01:35.161Z,16.30
2022-10-17T02:05:20.392Z,16.30
2022-10-17T02:09:14.642Z,16.30
2022-10-17T02:13:27.902Z,16.30
2022-10-17T02:17:33.522Z,16.30
2022-10-17T02:21:24.213Z,16.20
2022-10-17T02:25:51.167Z,16.20
2022-10-17T02:29:46.482Z,16.20
2022-10-17T02:33:35.334Z,16.20
2022-10-17T02:37:25.418Z,16.20
2022-10-17T02:41:11.107Z,16.20
2022-10-17T02:44:55.107Z,16.20
2022-10-17T02:48:47.238Z,16.20
2022-10-17T02:52:37.384Z,16.20
2022-10-17T02:56:21.409Z,16.20
2022-10-17T03:00:06.733Z,16.20
2022-10-17T03:03:48.626Z,16.20
2022-10-17T03:07:30.428Z,16.20
2022-10-17T03:11:12.254Z,16.10
2022-10-17T03:14:54.073Z,16.10
2022-10-17T03:18:35.879Z,16.10
2022-10-17T03:22:17.762Z,16.10
2022-10-17T03:26:04.840Z,16.10
2022-10-17T03:29:46.672Z,16.10
2022-10-17T03:33:28.507Z,16.00
2022-10-17T03:37:10.329Z,16.00
2022-10-17T03:40:56.137Z,16.00
2022-10-17T03:44:37.995Z,15.90
2022-10-17T03:48:19.926Z,15.80
2022-10-17T03:52:02.026Z,15.80
2022-10-17T03:55:43.994Z,15.80
2022-10-17T03:59:25.808Z,15.80
2022-10-17T04:03:07.712Z,15.70
2022-10-17T04:06:49.572Z,15.70
2022-10-17T04:10:31.371Z,15.70
2022-10-17T04:14:13.591Z,15.70
2022-10-17T04:17:55.512Z,15.70
2022-10-17T04:21:37.894Z,15.70
2022-10-17T04:25:20.024Z,15.70
2022-10-17T04:29:01.834Z,15.60
2022-10-17T04:32:43.750Z,15.60
2022-10-17T04:36:25.627Z,15.60
2022-10-17T04:40:08.192Z,15.60
2022-10-17T04:43:51.350Z,15.60
2022-10-17T04:47:33.420Z,15.50
2022-10-17T04:51:20.567Z,15.60
2022-10-17T04:55:06.466Z,15.60
2022-10-17T04:58:48.609Z,15.50
2022-10-17T05:02:30.826Z,15.50
2022-10-17T05:06:18.519Z,15.50
2022-10-17T05:10:00.376Z,15.40
2022-10-17T05:13:42.167Z,15.40
2022-10-17T05:17:24.770Z,15.30
2022-10-17T05:21:06.803Z,15.30
2022-10-17T05:24:48.599Z,15.30
2022-10-17T05:28:30.416Z,15.10
2022-10-17T05:32:12.308Z,15.10
2022-10-17T05:35:54.127Z,15.10
2022-10-17T05:39:35.981Z,15.00
2022-10-17T05:43:18.267Z,15.00
2022-10-17T05:47:00.042Z,15.00
2022-10-17T05:50:41.966Z,14.90
2022-10-17T05:54:24.087Z,14.90
2022-10-17T05:58:06.067Z,14.80
2022-10-17T06:01:48.133Z,14.80
2022-10-17T06:05:30.027Z,14.70
2022-10-17T06:09:11.947Z,14.70
2022-10-17T06:12:53.844Z,14.70
2022-10-17T06:16:35.716Z,14.60
2022-10-17T06:20:17.619Z,14.60
2022-10-17T06:23:59.458Z,14.50
2022-10-17T06:27:41.309Z,14.50
2022-10-17T06:31:23.145Z,14.50
2022-10-17T06:35:05.374Z,14.50
2022-10-17T06:38:47.349Z,14.50
2022-10-17T06:42:29.351Z,14.50
2022-10-17T06:46:11.240Z,14.40
2022-10-17T06:49:53.135Z,14.40
2022-10-17T06:53:35.846Z,14.50
2022-10-17T06:57:17.949Z,14.40
2022-10-17T07:01:01.385Z,14.40
2022-10-17T07:04:45.734Z,14.40
2022-10-17T07:08:28.278Z,14.50
2022-10-17T07:12:12.216Z,14.50
2022-10-17T07:19:40.366Z,14.50
2022-10-17T07:23:23.084Z,14.50
2022-10-17T07:27:04.947Z,14.50
2022-10-17T07:34:20.679Z,14.50
2022-10-17T07:38:02.469Z,14.50
2022-10-17T07:41:44.302Z,14.50
2022-10-17T07:45:27.718Z,14.60
2022-10-17T07:49:09.539Z,14.60
2022-10-17T07:52:51.419Z,14.60
2022-10-17T07:56:33.472Z,14.70
2022-10-17T08:00:15.720Z,14.70
2022-10-17T08:03:57.559Z,14.70
2022-10-17T08:07:40.407Z,14.70
2022-10-17T08:11:23.545Z,14.80
2022-10-17T08:15:07.160Z,14.90
2022-10-17T08:18:48.978Z,14.90
2022-10-17T08:22:31.483Z,15.00
2022-10-17T08:26:16.879Z,15.00
2022-10-17T08:29:58.717Z,15.10
2022-10-17T08:33:41.452Z,15.20
2022-10-17T08:37:23.775Z,15.10
2022-10-17T08:41:20.326Z,15.20
2022-10-17T08:45:07.985Z,15.30
2022-10-17T08:48:51.786Z,15.40
2022-10-17T08:52:46.395Z,15.60
2022-10-17T08:56:47.885Z,15.70
2022-10-17T09:00:32.100Z,16.00
2022-10-17T09:04:33.202Z,16.20
2022-10-17T09:08:29.621Z,16.40
2022-10-17T09:12:41.425Z,16.60
2022-10-17T09:16:30.986Z,16.70
2022-10-17T09:20:18.176Z,16.90
2022-10-17T09:24:09.491Z,17.20
2022-10-17T09:28:10.913Z,17.30
2022-10-17T09:32:03.800Z,17.40
2022-10-17T09:35:47.451Z,17.60
2022-10-17T09:39:32.402Z,17.90
2022-10-17T09:43:15.434Z,18.40
2022-10-17T09:47:15.627Z,18.90
2022-10-17T09:51:08.317Z,19.70
2022-10-17T09:55:07.328Z,20.50
2022-10-17T09:58:55.477Z,21.40
2022-10-17T10:02:40.872Z,22.20
2022-10-17T10:06:22.682Z,23.00
2022-10-17T10:10:08.263Z,23.80
2022-10-17T10:13:51.158Z,24.50
2022-10-17T10:17:41.911Z,25.00
2022-10-17T10:21:26.507Z,25.40
2022-10-17T10:25:11.307Z,25.40
2022-10-17T10:29:02.854Z,25.40
2022-10-17T10:32:47.582Z,25.50
2022-10-17T10:36:53.860Z,26.00
2022-10-17T10:40:44.760Z,26.00
2022-10-17T10:44:29.577Z,25.80
2022-10-17T10:48:24.547Z,25.60
2022-10-17T10:52:10.381Z,25.60
2022-10-17T10:55:56.883Z,25.40
2022-10-17T10:59:41.220Z,25.10
2022-10-17T11:07:52.452Z,25.30
2022-10-17T11:11:43.702Z,25.80
2022-10-17T11:15:50.683Z,26.60
2022-10-17T11:19:45.168Z,27.20
2022-10-17T11:23:46.738Z,27.50
2022-10-17T11:27:30.284Z,28.10
2022-10-17T11:31:17.829Z,28.80
2022-10-17T11:35:20.956Z,29.60
2022-10-17T11:39:09.510Z,30.30
2022-10-17T11:43:20.355Z,30.20
2022-10-17T11:47:07.950Z,29.90
2022-10-17T11:55:28.113Z,30.10
2022-10-17T11:59:38.904Z,30.20
2022-10-17T12:03:39.490Z,29.70
2022-10-17T12:07:54.579Z,28.90
2022-10-17T12:12:02.617Z,29.20
2022-10-17T12:15:46.621Z,29.10
2022-10-17T12:19:32.607Z,29.00
2022-10-17T12:23:14.384Z,29.40
2022-10-17T12:26:57.129Z,30.20
2022-10-17T12:30:54.651Z,31.00
2022-10-17T12:34:37.317Z,31.90
2022-10-17T12:38:22.986Z,32.40
2022-10-17T12:42:24.811Z,32.90
2022-10-17T12:46:09.075Z,33.10
2022-10-17T12:49:55.735Z,33.20
2022-10-17T12:54:02.372Z,33.40
2022-10-17T12:58:00.115Z,32.80
2022-10-17T13:01:46.463Z,32.10
2022-10-17T13:05:34.856Z,31.40
2022-10-17T13:09:37.660Z,30.40
2022-10-17T13:13:21.262Z,29.40
2022-10-17T13:17:06.285Z,28.70
2022-10-17T13:21:15.540Z,29.00
2022-10-17T13:25:20.121Z,30.10
2022-10-17T13:32:57.425Z,30.50
2022-10-17T13:36:39.330Z,30.60
2022-10-17T13:44:32.880Z,30.40
2022-10-17T13:48:27.202Z,30.60
2022-10-17T13:52:21.903Z,30.30
2022-10-17T13:56:27.894Z,29.60
2022-10-17T14:00:21.882Z,28.70
2022-10-17T14:04:19.416Z,27.70
2022-10-17T14:08:13.449Z,26.90
2022-10-17T14:12:01.090Z,26.30
2022-10-17T14:15:45.923Z,26.00
2022-10-17T14:19:32.855Z,26.10
2022-10-17T14:23:42.959Z,25.90
2022-10-17T14:27:30.431Z,25.80
2022-10-17T14:31:25.572Z,26.20
2022-10-17T14:35:37.392Z,26.30
2022-10-17T14:39:28.335Z,26.50
2022-10-17T14:43:22.690Z,26.60
2022-10-17T14:47:30.878Z,26.50
2022-10-17T14:51:15.409Z,26.40
2022-10-17T14:54:58.694Z,25.90
2022-10-17T14:58:40.496Z,25.60
2022-10-17T15:02:27.297Z,25.60
2022-10-17T15:06:19.938Z,25.80
2022-10-17T15:10:01.738Z,25.90
2022-10-17T15:13:45.675Z,25.60
2022-10-17T15:17:31.016Z,25.40
2022-10-17T15:21:26.451Z,25.20
2022-10-17T15:25:15.753Z,25.00
2022-10-17T15:28:57.844Z,24.70
2022-10-17T15:32:39.672Z,24.30
2022-10-17T15:36:48.813Z,24.10
2022-10-17T15:40:30.955Z,23.90
2022-10-17T15:44:12.760Z,23.60
2022-10-17T15:47:57.665Z,23.40
2022-10-17T15:51:39.796Z,23.20
2022-10-17T15:55:21.861Z,23.10
2022-10-17T15:59:12.513Z,22.80
2022-10-17T16:02:54.303Z,22.50
2022-10-17T16:06:36.144Z,22.30
2022-10-17T16:10:18.933Z,22.10
2022-10-17T16:14:02.994Z,22.00
2022-10-17T16:17:44.878Z,21.80
2022-10-17T16:21:32.757Z,21.60
2022-10-17T16:25:22.125Z,21.50
2022-10-17T16:29:04.921Z,21.40
2022-10-17T16:32:47.520Z,21.30
2022-10-17T16:36:29.539Z,21.30
2022-10-17T16:40:14.314Z,21.20
2022-10-17T16:43:58.427Z,21.10
2022-10-17T16:47:40.224Z,21.00
2022-10-17T16:51:22.396Z,21.00
2022-10-17T16:55:04.555Z,20.90
2022-10-17T16:58:47.042Z,20.80
2022-10-17T17:02:29.063Z,20.70
2022-10-17T17:06:16.257Z,20.50
2022-10-17T17:09:58.144Z,20.40
2022-10-17T17:13:41.161Z,20.30
2022-10-17T17:17:37.033Z,20.20
2022-10-17T17:21:24.955Z,20.00
2022-10-17T17:25:07.056Z,19.90
2022-10-17T17:28:50.211Z,19.70
2022-10-17T17:32:32.749Z,19.60
2022-10-17T17:36:18.465Z,19.40
2022-10-17T17:40:00.273Z,19.30
2022-10-17T17:43:43.475Z,19.10
2022-10-17T17:47:29.096Z,19.00
2022-10-17T17:51:13.148Z,18.90
2022-10-17T17:54:55.263Z,18.70
2022-10-17T17:58:37.439Z,18.60
2022-10-17T18:02:22.394Z,18.50
2022-10-17T18:06:06.637Z,18.40
2022-10-17T18:09:49.244Z,18.20
2022-10-17T18:13:31.118Z,18.10
2022-10-17T18:17:13.584Z,18.00
2022-10-17T18:20:56.219Z,17.90
2022-10-17T18:24:38.040Z,17.80
2022-10-17T18:28:19.943Z,17.70
2022-10-17T18:32:01.886Z,17.50
2022-10-17T18:35:43.729Z,17.40
2022-10-17T18:39:25.804Z,17.30
2022-10-17T18:43:07.663Z,17.20
2022-10-17T18:46:52.907Z,17.10
2022-10-17T18:50:34.861Z,17.00
2022-10-17T18:54:20.659Z,16.90
2022-10-17T18:58:02.492Z,16.80
2022-10-17T19:01:44.588Z,16.70
2022-10-17T19:05:26.500Z,16.60
2022-10-17T19:09:10.598Z,16.50
2022-10-17T19:12:53.275Z,16.40
2022-10-17T19:16:36.769Z,16.30
2022-10-17T19:20:18.788Z,16.10
2022-10-17T19:24:03.455Z,16.00
2022-10-17T19:27:59.229Z,15.90
2022-10-17T19:31:41.268Z,15.80
2022-10-17T19:35:23.165Z,15.80
2022-10-17T19:39:08.558Z,15.70
2022-10-17T19:42:59.150Z,15.60
2022-10-17T19:46:41.628Z,15.50
2022-10-17T19:50:23.638Z,15.50
2022-10-17T19:54:22.019Z,15.40
2022-10-17T19:58:06.860Z,15.30
2022-10-17T20:01:48.881Z,15.20
2022-10-17T20:05:30.928Z,15.10
2022-10-17T20:09:16.751Z,15.00
2022-10-17T20:12:59.366Z,15.00
2022-10-17T20:16:41.274Z,14.90
2022-10-17T20:20:23.559Z,14.80
2022-10-17T20:24:08.300Z,14.70
2022-10-17T20:27:50.214Z,14.70
2022-10-17T20:31:32.119Z,14.60
2022-10-17T20:35:14.011Z,14.50
2022-10-17T20:38:57.168Z,14.40
2022-10-17T20:42:39.140Z,14.30
2022-10-17T20:46:35.945Z,14.10
2022-10-17T20:50:19.295Z,14.00
2022-10-17T20:54:02.515Z,13.90
2022-10-17T20:57:44.665Z,13.90
2022-10-17T21:01:27.695Z,13.80
2022-10-17T21:05:09.654Z,13.80
2022-10-17T21:08:54.487Z,13.70
2022-10-17T21:12:53.118Z,13.60
2022-10-17T21:16:37.535Z,13.50
2022-10-17T21:20:21.095Z,13.50
2022-10-17T21:24:06.226Z,13.40
2022-10-17T21:27:48.058Z,13.30
2022-10-17T21:31:30.453Z,13.30
2022-10-17T21:35:13.193Z,13.20
2022-10-17T21:38:56.684Z,13.10
2022-10-17T21:42:38.625Z,13.10
2022-10-17T21:46:22.054Z,13.00
2022-10-17T21:50:04.082Z,12.90
2022-10-17T21:53:46.087Z,12.80
2022-10-17T21:57:27.908Z,12.80
2022-10-17T22:01:11.875Z,12.70
2022-10-17T22:04:53.699Z,12.60
2022-10-17T22:08:36.536Z,12.60
2022-10-17T22:12:18.796Z,12.50
2022-10-17T22:16:02.066Z,12.40
2022-10-17T22:19:43.862Z,12.40
2022-10-17T22:23:26.114Z,12.30
2022-10-17T22:27:10.336Z,12.20
2022-10-17T22:30:52.461Z,12.10
2022-10-17T22:34:34.410Z,12.10
2022-10-17T22:38:16.477Z,12.00
2022-10-17T22:41:58.326Z,12.00
2022-10-17T22:45:40.450Z,11.90
2022-10-17T22:49:22.242Z,11.80
2022-10-17T22:53:04.059Z,11.80
2022-10-17T22:56:45.851Z,11.70
2022-10-17T23:04:10.386Z,11.50
2022-10-17T23:07:52.206Z,11.50
2022-10-17T23:11:34.064Z,11.40
2022-10-17T23:15:16.004Z,11.20
2022-10-17T23:18:58.007Z,11.20
2022-10-17T23:22:39.800Z,11.10
2022-10-17T23:26:21.662Z,11.00
2022-10-17T23:30:05.021Z,11.00
2022-10-17T23:33:48.983Z,10.90
2022-10-17T23:37:31.333Z,10.80
2022-10-17T23:41:13.805Z,10.70
2022-10-17T23:44:55.772Z,10.70
2022-10-17T23:48:38.638Z,10.70
2022-10-17T23:52:20.727Z,10.60
2022-10-17T23:56:02.662Z,10.60
2022-10-17T23:59:44.499Z,10.60
